Seattle, WA

8:23 PM PST on March 03, 2015 (GMT -0800)
Magnolia - MaxHome | Change Station
CLOSE
Current Station
Personal Weather Station
Location: Seattle, WA
Elevation: 226 ft
Nearby Weather Stations

Elev 226 ft 47.65 °N, 122.40 °W | Updated 12 seconds ago

Clear
Clear
40.3 °F
Feels Like 40 °F
N
0.0
Wind Variable Wind from NE
Gusts 0.0 mph

Today
High -- | Low -- °F
--% Chance of Precip.
Yesterday
High -- | Low -- °F
Precip. -- in
6:46 AM 5:57 PM
Waxing Gibbous, 98% visible
Pressure 30.23 in
Visibility 10.0 miles
Clouds Scattered Clouds 25000 ft
Windchill 40 °F
Dew Point 29 °F
Humidity 63%
Rainfall 0.00 in
Snow Depth Not available.
UV 0 out of 12
Pollen 7.70 out of 12
Air Quality Not available.
Flu Activity Not available.
METAR KBFI 040353Z 00000KT 10SM SCT250 07/M07 A3023 RMK AO2 SLP236 T00671067

More Conditions Fewer Conditions

Pressure 30.23 in
Visibility 10.0 miles
Clouds Scattered Clouds 25000 ft
Windchill 40 °F
Dew Point 29 °F
Humidity 63%
Rainfall 0.00 in
Snow Depth Not available.
UV 0 out of 12
Pollen 7.70 out of 12
Air Quality Not available.
Flu Activity Not available.
METAR KBFI 040353Z 00000KT 10SM SCT250 07/M07 A3023 RMK AO2 SLP236 T00671067

More Conditions Fewer Conditions

10-Day Weather Forecast

Almanac

Astronomy

Mar. 03, 2015 Rise Set
Actual Time
Civil Twilight
Nautical Twilight
Astronomical Twilight
Moon
Length of Visible Light
Length of Day
Tomorrow will be .
, % of the Moon is Illuminated

Today's Extremes

State Highs State Lows

Community

WunderPhotos

Upload Photos

1,802,383 photos uploaded!

WunderBlogs® & News

Nearby

Air Quality

  Air Quality AQ Index Pollutant
Not available.

Snow Depth

Station Depth Elevation

Earthquake Activity

City Distance Mag. Time & Date
Minimum magnitude displayed is 2.5.

Coastal Water Temperatures

Place Temperature

Nearby Weather Stations